This is the latest recevied weather packets stored in our database for station/object R2BLN-13. If no packets are shown the sender has not sent any weather packets the latest 10 day(s).
| Time | Temp. | Humidity | Pressure | Rain* | Wind** | Luminosity | Snow |
|---|---|---|---|---|---|---|---|
| 1787999575 | 26.67° C | 39% | 1000.4 hPa | - | - | - | - |
| 1787998975 | 27.22° C | 39% | 1000.4 hPa | - | - | - | - |
| 1787998375 | 27.78° C | 36% | 1000.4 hPa | - | - | - | - |
| 1787997775 | 29.44° C | 35% | 1000.4 hPa | - | - | - | - |
| 1787997175 | 31.11° C | 35% | 1000.4 hPa | - | - | - | - |
| 1787996575 | 31.67° C | 33% | 1000.4 hPa | - | - | - | - |
| 1787995969 | 33.33° C | 31% | 1000.5 hPa | - | - | - | - |
| 1787995356 | 35.56° C | 31% | 1000.4 hPa | - | - | - | - |
| 1787994745 | 35° C | 28% | 1000.4 hPa | - | - | - | - |
| 1787994145 | 35.56° C | 30% | 1000.4 hPa | - | - | - | - |
| 1787993545 | 36.11° C | 26% | 1000.6 hPa | - | - | - | - |
| 1787992945 | 38.33° C | 26% | 1000.6 hPa | - | - | - | - |
| 1787992345 | 36.67° C | 27% | 1000.7 hPa | - | - | - | - |
| 1787991745 | 37.78° C | 26% | 1000.8 hPa | - | - | - | - |
| 1787991145 | 38.89° C | 24% | 1000.8 hPa | - | - | - | - |
| 1787990545 | 42.78° C | 22% | 1000.9 hPa | - | - | - | - |
| 1787989945 | 44.44° C | 23% | 1000.9 hPa | - | - | - | - |
| 1787989345 | 43.33° C | 21% | 1001 hPa | - | - | - | - |
| 1787988745 | 41.67° C | 24% | 1001.2 hPa | - | - | - | - |
| 1787988145 | 33.33° C | 37% | 1001.4 hPa | - | - | - | - |
| 1787987545 | 32.22° C | 35% | 1001.4 hPa | - | - | - | - |
| 1787986939 | 32.78° C | 37% | 1001.5 hPa | - | - | - | - |
| 1787986315 | 29.44° C | 39% | 1001.6 hPa | - | - | - | - |
| 1787985715 | 32.78° C | 33% | 1001.6 hPa | - | - | - | - |
| 1787985115 | 34.44° C | 31% | 1001.7 hPa | - | - | - | - |
* Rain since midnight (hover to see other rain measurements)
** Current wind speed in m/s (hover to see current wind gust speed)